sensor_id;sensor_type;location;lat;lon;timestamp;P1;durP1;ratioP1;P2;durP2;ratioP2
25049;SDS011;13046;49.814;9.918;2024-03-02T00:00:48;40.88;;;27.63;;
25049;SDS011;13046;49.814;9.918;2024-03-02T00:03:14;43.30;;;29.65;;
25049;SDS011;13046;49.814;9.918;2024-03-02T00:05:40;41.70;;;26.83;;
25049;SDS011;13046;49.814;9.918;2024-03-02T00:08:06;48.03;;;28.95;;
25049;SDS011;13046;49.814;9.918;2024-03-02T00:10:35;44.10;;;28.08;;
25049;SDS011;13046;49.814;9.918;2024-03-02T00:13:04;39.65;;;27.45;;
25049;SDS011;13046;49.814;9.918;2024-03-02T00:18:03;47.80;;;29.88;;
25049;SDS011;13046;49.814;9.918;2024-03-02T00:20:29;37.97;;;26.77;;
25049;SDS011;13046;49.814;9.918;2024-03-02T00:23:02;43.03;;;27.38;;
25049;SDS011;13046;49.814;9.918;2024-03-02T00:25:35;42.10;;;26.65;;
25049;SDS011;13046;49.814;9.918;2024-03-02T00:32:57;43.47;;;28.17;;
25049;SDS011;13046;49.814;9.918;2024-03-02T00:35:23;42.08;;;26.98;;
25049;SDS011;13046;49.814;9.918;2024-03-02T00:37:49;38.22;;;28.75;;
25049;SDS011;13046;49.814;9.918;2024-03-02T00:40:16;39.33;;;26.58;;
25049;SDS011;13046;49.814;9.918;2024-03-02T00:42:44;38.00;;;26.17;;
25049;SDS011;13046;49.814;9.918;2024-03-02T00:45:10;43.13;;;25.77;;
25049;SDS011;13046;49.814;9.918;2024-03-02T00:47:39;35.45;;;26.45;;
25049;SDS011;13046;49.814;9.918;2024-03-02T00:50:05;38.53;;;27.27;;
25049;SDS011;13046;49.814;9.918;2024-03-02T00:52:33;39.17;;;26.48;;
25049;SDS011;13046;49.814;9.918;2024-03-02T00:54:59;41.70;;;28.30;;
25049;SDS011;13046;49.814;9.918;2024-03-02T00:57:25;47.15;;;31.33;;
25049;SDS011;13046;49.814;9.918;2024-03-02T00:59:52;45.45;;;30.10;;
25049;SDS011;13046;49.814;9.918;2024-03-02T01:02:18;45.30;;;27.90;;
25049;SDS011;13046;49.814;9.918;2024-03-02T01:04:45;41.00;;;28.42;;
25049;SDS011;13046;49.814;9.918;2024-03-02T01:07:11;38.58;;;26.92;;
25049;SDS011;13046;49.814;9.918;2024-03-02T01:09:37;41.88;;;28.05;;
25049;SDS011;13046;49.814;9.918;2024-03-02T01:12:03;40.83;;;27.50;;
25049;SDS011;13046;49.814;9.918;2024-03-02T01:14:29;41.35;;;28.58;;
25049;SDS011;13046;49.814;9.918;2024-03-02T01:16:55;47.05;;;30.65;;
25049;SDS011;13046;49.814;9.918;2024-03-02T01:19:22;48.35;;;31.70;;
25049;SDS011;13046;49.814;9.918;2024-03-02T01:21:48;45.05;;;28.42;;
25049;SDS011;13046;49.814;9.918;2024-03-02T01:24:15;40.42;;;29.02;;
25049;SDS011;13046;49.814;9.918;2024-03-02T01:26:42;43.90;;;28.75;;
25049;SDS011;13046;49.814;9.918;2024-03-02T01:29:09;43.40;;;28.98;;
25049;SDS011;13046;49.814;9.918;2024-03-02T01:31:35;44.75;;;30.13;;
25049;SDS011;13046;49.814;9.918;2024-03-02T01:34:01;41.92;;;28.83;;
25049;SDS011;13046;49.814;9.918;2024-03-02T01:36:27;41.63;;;29.38;;
25049;SDS011;13046;49.814;9.918;2024-03-02T01:38:53;41.72;;;29.92;;
25049;SDS011;13046;49.814;9.918;2024-03-02T01:41:19;44.67;;;31.63;;
25049;SDS011;13046;49.814;9.918;2024-03-02T01:43:46;41.50;;;28.52;;
25049;SDS011;13046;49.814;9.918;2024-03-02T01:46:12;46.67;;;31.08;;
25049;SDS011;13046;49.814;9.918;2024-03-02T01:48:38;44.20;;;31.95;;
25049;SDS011;13046;49.814;9.918;2024-03-02T01:51:04;43.63;;;29.88;;
25049;SDS011;13046;49.814;9.918;2024-03-02T01:53:31;45.22;;;30.10;;
25049;SDS011;13046;49.814;9.918;2024-03-02T01:55:57;39.67;;;28.05;;
25049;SDS011;13046;49.814;9.918;2024-03-02T01:58:24;46.50;;;30.00;;
25049;SDS011;13046;49.814;9.918;2024-03-02T02:00:50;40.10;;;28.88;;
25049;SDS011;13046;49.814;9.918;2024-03-02T02:03:16;45.67;;;30.35;;
25049;SDS011;13046;49.814;9.918;2024-03-02T02:05:42;43.88;;;30.42;;
25049;SDS011;13046;49.814;9.918;2024-03-02T02:08:08;44.97;;;29.52;;
25049;SDS011;13046;49.814;9.918;2024-03-02T02:10:34;47.83;;;29.98;;
25049;SDS011;13046;49.814;9.918;2024-03-02T02:13:01;46.30;;;30.77;;
25049;SDS011;13046;49.814;9.918;2024-03-02T02:15:28;43.17;;;30.02;;
25049;SDS011;13046;49.814;9.918;2024-03-02T02:17:55;43.53;;;28.23;;
25049;SDS011;13046;49.814;9.918;2024-03-02T02:20:21;42.03;;;28.65;;
25049;SDS011;13046;49.814;9.918;2024-03-02T02:22:57;45.80;;;30.58;;
25049;SDS011;13046;49.814;9.918;2024-03-02T02:25:24;46.83;;;30.77;;
25049;SDS011;13046;49.814;9.918;2024-03-02T02:27:50;44.10;;;31.75;;
25049;SDS011;13046;49.814;9.918;2024-03-02T02:30:20;48.50;;;31.90;;
25049;SDS011;13046;49.814;9.918;2024-03-02T02:32:46;43.88;;;30.05;;
25049;SDS011;13046;49.814;9.918;2024-03-02T02:35:12;46.15;;;30.50;;
25049;SDS011;13046;49.814;9.918;2024-03-02T02:37:38;45.72;;;30.35;;
25049;SDS011;13046;49.814;9.918;2024-03-02T02:40:05;47.47;;;31.27;;
25049;SDS011;13046;49.814;9.918;2024-03-02T02:42:31;42.10;;;30.02;;
25049;SDS011;13046;49.814;9.918;2024-03-02T02:44:57;47.53;;;28.92;;
25049;SDS011;13046;49.814;9.918;2024-03-02T02:47:23;46.67;;;30.25;;
25049;SDS011;13046;49.814;9.918;2024-03-02T02:49:49;42.63;;;29.92;;
25049;SDS011;13046;49.814;9.918;2024-03-02T02:52:15;43.08;;;30.63;;
25049;SDS011;13046;49.814;9.918;2024-03-02T02:54:41;44.50;;;30.88;;
25049;SDS011;13046;49.814;9.918;2024-03-02T02:57:07;47.63;;;29.35;;
25049;SDS011;13046;49.814;9.918;2024-03-02T02:59:35;45.35;;;28.98;;
25049;SDS011;13046;49.814;9.918;2024-03-02T03:02:02;45.88;;;30.10;;
25049;SDS011;13046;49.814;9.918;2024-03-02T03:04:28;44.47;;;30.67;;
25049;SDS011;13046;49.814;9.918;2024-03-02T03:06:54;44.75;;;29.50;;
25049;SDS011;13046;49.814;9.918;2024-03-02T03:09:20;45.22;;;29.98;;
25049;SDS011;13046;49.814;9.918;2024-03-02T03:11:46;46.63;;;30.05;;
25049;SDS011;13046;49.814;9.918;2024-03-02T03:14:12;43.08;;;28.17;;
25049;SDS011;13046;49.814;9.918;2024-03-02T03:16:38;44.97;;;28.27;;
25049;SDS011;13046;49.814;9.918;2024-03-02T03:19:04;39.97;;;27.95;;
25049;SDS011;13046;49.814;9.918;2024-03-02T03:21:30;48.58;;;32.08;;
25049;SDS011;13046;49.814;9.918;2024-03-02T03:23:56;49.33;;;31.60;;
25049;SDS011;13046;49.814;9.918;2024-03-02T03:26:22;44.67;;;30.92;;
25049;SDS011;13046;49.814;9.918;2024-03-02T03:28:49;42.15;;;27.60;;
25049;SDS011;13046;49.814;9.918;2024-03-02T03:31:15;43.30;;;29.52;;
25049;SDS011;13046;49.814;9.918;2024-03-02T03:33:41;41.72;;;30.70;;
25049;SDS011;13046;49.814;9.918;2024-03-02T03:36:07;41.20;;;29.00;;
25049;SDS011;13046;49.814;9.918;2024-03-02T03:38:33;43.97;;;28.95;;
25049;SDS011;13046;49.814;9.918;2024-03-02T03:40:59;42.88;;;29.65;;
25049;SDS011;13046;49.814;9.918;2024-03-02T03:43:25;46.20;;;30.67;;
25049;SDS011;13046;49.814;9.918;2024-03-02T03:45:51;40.20;;;28.92;;
25049;SDS011;13046;49.814;9.918;2024-03-02T03:48:17;51.35;;;30.30;;
25049;SDS011;13046;49.814;9.918;2024-03-02T03:50:44;39.58;;;27.98;;
25049;SDS011;13046;49.814;9.918;2024-03-02T03:53:10;40.55;;;26.85;;
25049;SDS011;13046;49.814;9.918;2024-03-02T03:55:36;42.45;;;29.13;;
25049;SDS011;13046;49.814;9.918;2024-03-02T03:58:02;39.60;;;27.83;;
25049;SDS011;13046;49.814;9.918;2024-03-02T04:00:28;39.83;;;27.65;;
25049;SDS011;13046;49.814;9.918;2024-03-02T04:02:54;42.42;;;29.42;;
25049;SDS011;13046;49.814;9.918;2024-03-02T04:05:20;41.13;;;29.75;;
25049;SDS011;13046;49.814;9.918;2024-03-02T04:07:48;42.90;;;28.05;;
25049;SDS011;13046;49.814;9.918;2024-03-02T04:10:14;41.38;;;26.67;;
25049;SDS011;13046;49.814;9.918;2024-03-02T04:12:42;40.13;;;27.77;;
25049;SDS011;13046;49.814;9.918;2024-03-02T04:15:08;42.35;;;26.77;;
25049;SDS011;13046;49.814;9.918;2024-03-02T04:17:34;41.20;;;26.65;;
25049;SDS011;13046;49.814;9.918;2024-03-02T04:20:01;39.30;;;25.85;;
25049;SDS011;13046;49.814;9.918;2024-03-02T04:22:29;36.08;;;24.88;;
25049;SDS011;13046;49.814;9.918;2024-03-02T04:24:55;43.47;;;26.67;;
25049;SDS011;13046;49.814;9.918;2024-03-02T04:27:21;38.60;;;26.88;;
25049;SDS011;13046;49.814;9.918;2024-03-02T04:29:47;37.42;;;25.33;;
25049;SDS011;13046;49.814;9.918;2024-03-02T04:32:13;39.78;;;25.42;;
25049;SDS011;13046;49.814;9.918;2024-03-02T04:34:40;37.58;;;24.23;;
25049;SDS011;13046;49.814;9.918;2024-03-02T04:37:06;40.55;;;26.55;;
25049;SDS011;13046;49.814;9.918;2024-03-02T04:39:32;38.20;;;24.85;;
25049;SDS011;13046;49.814;9.918;2024-03-02T04:42:00;34.28;;;24.55;;
25049;SDS011;13046;49.814;9.918;2024-03-02T04:44:27;36.13;;;24.85;;
25049;SDS011;13046;49.814;9.918;2024-03-02T04:46:53;40.28;;;26.67;;
25049;SDS011;13046;49.814;9.918;2024-03-02T04:49:20;32.97;;;23.77;;
25049;SDS011;13046;49.814;9.918;2024-03-02T04:51:46;41.72;;;26.73;;
25049;SDS011;13046;49.814;9.918;2024-03-02T04:54:12;38.10;;;24.98;;
25049;SDS011;13046;49.814;9.918;2024-03-02T04:56:39;39.80;;;24.85;;
25049;SDS011;13046;49.814;9.918;2024-03-02T04:59:09;37.08;;;25.17;;
25049;SDS011;13046;49.814;9.918;2024-03-02T05:01:36;41.13;;;25.48;;
25049;SDS011;13046;49.814;9.918;2024-03-02T05:04:02;39.50;;;25.23;;
25049;SDS011;13046;49.814;9.918;2024-03-02T05:06:28;38.63;;;24.15;;
25049;SDS011;13046;49.814;9.918;2024-03-02T05:08:55;43.22;;;25.15;;
25049;SDS011;13046;49.814;9.918;2024-03-02T05:11:21;36.13;;;23.38;;
25049;SDS011;13046;49.814;9.918;2024-03-02T05:14:13;34.83;;;24.17;;
25049;SDS011;13046;49.814;9.918;2024-03-02T05:16:39;36.35;;;23.67;;
25049;SDS011;13046;49.814;9.918;2024-03-02T05:19:07;34.45;;;22.58;;
25049;SDS011;13046;49.814;9.918;2024-03-02T05:21:33;36.03;;;22.67;;
25049;SDS011;13046;49.814;9.918;2024-03-02T05:23:59;37.38;;;24.88;;
25049;SDS011;13046;49.814;9.918;2024-03-02T05:26:26;38.60;;;23.42;;
25049;SDS011;13046;49.814;9.918;2024-03-02T05:28:52;41.40;;;23.73;;
25049;SDS011;13046;49.814;9.918;2024-03-02T05:31:18;37.38;;;24.00;;
25049;SDS011;13046;49.814;9.918;2024-03-02T05:33:44;34.42;;;22.77;;
25049;SDS011;13046;49.814;9.918;2024-03-02T05:36:10;38.78;;;23.13;;
25049;SDS011;13046;49.814;9.918;2024-03-02T05:38:36;34.70;;;22.90;;
25049;SDS011;13046;49.814;9.918;2024-03-02T05:41:03;37.00;;;23.10;;
25049;SDS011;13046;49.814;9.918;2024-03-02T05:43:29;45.75;;;30.40;;
25049;SDS011;13046;49.814;9.918;2024-03-02T05:45:55;43.15;;;27.80;;
25049;SDS011;13046;49.814;9.918;2024-03-02T05:48:21;38.72;;;24.98;;
25049;SDS011;13046;49.814;9.918;2024-03-02T05:50:48;38.90;;;26.13;;
25049;SDS011;13046;49.814;9.918;2024-03-02T05:53:14;43.85;;;28.13;;
25049;SDS011;13046;49.814;9.918;2024-03-02T05:55:40;40.65;;;26.17;;
25049;SDS011;13046;49.814;9.918;2024-03-02T05:58:06;48.17;;;30.98;;
25049;SDS011;13046;49.814;9.918;2024-03-02T06:00:57;58.88;;;37.67;;
25049;SDS011;13046;49.814;9.918;2024-03-02T06:03:23;53.08;;;35.95;;
25049;SDS011;13046;49.814;9.918;2024-03-02T06:05:50;43.70;;;30.35;;
25049;SDS011;13046;49.814;9.918;2024-03-02T06:08:16;43.65;;;28.08;;
25049;SDS011;13046;49.814;9.918;2024-03-02T06:10:42;45.08;;;29.55;;
25049;SDS011;13046;49.814;9.918;2024-03-02T06:13:09;41.15;;;26.77;;
25049;SDS011;13046;49.814;9.918;2024-03-02T06:15:35;38.15;;;27.65;;
25049;SDS011;13046;49.814;9.918;2024-03-02T06:18:01;39.92;;;26.85;;
25049;SDS011;13046;49.814;9.918;2024-03-02T06:20:27;42.95;;;27.35;;
25049;SDS011;13046;49.814;9.918;2024-03-02T06:22:56;40.35;;;23.48;;
25049;SDS011;13046;49.814;9.918;2024-03-02T06:25:22;42.30;;;26.95;;
25049;SDS011;13046;49.814;9.918;2024-03-02T06:27:48;42.22;;;26.88;;
25049;SDS011;13046;49.814;9.918;2024-03-02T06:30:14;48.35;;;28.77;;
25049;SDS011;13046;49.814;9.918;2024-03-02T06:32:40;50.10;;;28.88;;
25049;SDS011;13046;49.814;9.918;2024-03-02T06:35:06;45.33;;;27.95;;
25049;SDS011;13046;49.814;9.918;2024-03-02T06:37:35;41.58;;;24.48;;
25049;SDS011;13046;49.814;9.918;2024-03-02T06:40:01;40.80;;;26.58;;
25049;SDS011;13046;49.814;9.918;2024-03-02T06:42:27;49.83;;;29.70;;
25049;SDS011;13046;49.814;9.918;2024-03-02T06:44:58;54.47;;;33.03;;
25049;SDS011;13046;49.814;9.918;2024-03-02T06:47:24;46.22;;;29.40;;
25049;SDS011;13046;49.814;9.918;2024-03-02T06:49:50;50.60;;;28.83;;
25049;SDS011;13046;49.814;9.918;2024-03-02T06:52:16;44.65;;;27.98;;
25049;SDS011;13046;49.814;9.918;2024-03-02T06:54:42;41.25;;;26.50;;
25049;SDS011;13046;49.814;9.918;2024-03-02T06:57:08;49.65;;;27.17;;
25049;SDS011;13046;49.814;9.918;2024-03-02T06:59:35;44.63;;;28.77;;
25049;SDS011;13046;49.814;9.918;2024-03-02T07:02:01;50.28;;;30.17;;
25049;SDS011;13046;49.814;9.918;2024-03-02T07:04:27;54.25;;;31.65;;
25049;SDS011;13046;49.814;9.918;2024-03-02T07:06:53;66.93;;;37.15;;
25049;SDS011;13046;49.814;9.918;2024-03-02T07:09:20;67.45;;;36.22;;
25049;SDS011;13046;49.814;9.918;2024-03-02T07:11:48;73.40;;;40.75;;
25049;SDS011;13046;49.814;9.918;2024-03-02T07:14:14;69.10;;;37.60;;
25049;SDS011;13046;49.814;9.918;2024-03-02T07:16:40;63.42;;;36.13;;
25049;SDS011;13046;49.814;9.918;2024-03-02T07:19:08;62.10;;;35.92;;
25049;SDS011;13046;49.814;9.918;2024-03-02T07:21:34;46.13;;;30.42;;
25049;SDS011;13046;49.814;9.918;2024-03-02T07:24:00;48.42;;;30.00;;
25049;SDS011;13046;49.814;9.918;2024-03-02T07:26:30;54.40;;;32.00;;
25049;SDS011;13046;49.814;9.918;2024-03-02T07:28:56;44.10;;;29.38;;
25049;SDS011;13046;49.814;9.918;2024-03-02T07:31:22;50.60;;;30.92;;
25049;SDS011;13046;49.814;9.918;2024-03-02T07:33:48;47.05;;;28.90;;
25049;SDS011;13046;49.814;9.918;2024-03-02T07:36:15;46.05;;;28.52;;
25049;SDS011;13046;49.814;9.918;2024-03-02T07:38:41;44.67;;;28.25;;
25049;SDS011;13046;49.814;9.918;2024-03-02T07:41:09;39.45;;;26.45;;
25049;SDS011;13046;49.814;9.918;2024-03-02T07:43:36;42.10;;;26.45;;
25049;SDS011;13046;49.814;9.918;2024-03-02T07:46:02;42.28;;;25.27;;
25049;SDS011;13046;49.814;9.918;2024-03-02T07:48:28;38.15;;;25.13;;
25049;SDS011;13046;49.814;9.918;2024-03-02T07:50:55;42.17;;;25.50;;
25049;SDS011;13046;49.814;9.918;2024-03-02T07:53:21;39.38;;;26.60;;
25049;SDS011;13046;49.814;9.918;2024-03-02T07:55:47;39.83;;;26.20;;
25049;SDS011;13046;49.814;9.918;2024-03-02T07:58:14;40.72;;;27.02;;
25049;SDS011;13046;49.814;9.918;2024-03-02T08:00:40;42.47;;;28.70;;
25049;SDS011;13046;49.814;9.918;2024-03-02T08:03:07;46.17;;;30.23;;
25049;SDS011;13046;49.814;9.918;2024-03-02T08:05:36;48.33;;;31.17;;
25049;SDS011;13046;49.814;9.918;2024-03-02T08:08:03;44.42;;;30.55;;
25049;SDS011;13046;49.814;9.918;2024-03-02T08:10:29;47.22;;;31.23;;
25049;SDS011;13046;49.814;9.918;2024-03-02T08:12:55;39.33;;;29.48;;
25049;SDS011;13046;49.814;9.918;2024-03-02T08:15:21;66.63;;;46.40;;
25049;SDS011;13046;49.814;9.918;2024-03-02T08:17:47;69.40;;;49.28;;
25049;SDS011;13046;49.814;9.918;2024-03-02T08:20:14;57.50;;;39.03;;
25049;SDS011;13046;49.814;9.918;2024-03-02T08:22:40;47.00;;;32.83;;
25049;SDS011;13046;49.814;9.918;2024-03-02T08:25:07;43.33;;;30.65;;
25049;SDS011;13046;49.814;9.918;2024-03-02T08:27:33;39.35;;;26.50;;
25049;SDS011;13046;49.814;9.918;2024-03-02T08:29:59;45.47;;;28.70;;
25049;SDS011;13046;49.814;9.918;2024-03-02T08:32:25;40.42;;;28.33;;
25049;SDS011;13046;49.814;9.918;2024-03-02T08:34:51;38.50;;;27.17;;
25049;SDS011;13046;49.814;9.918;2024-03-02T08:37:18;37.60;;;27.08;;
25049;SDS011;13046;49.814;9.918;2024-03-02T08:39:44;37.00;;;26.35;;
25049;SDS011;13046;49.814;9.918;2024-03-02T08:42:11;34.95;;;25.45;;
25049;SDS011;13046;49.814;9.918;2024-03-02T08:44:37;38.40;;;26.60;;
25049;SDS011;13046;49.814;9.918;2024-03-02T08:47:03;35.90;;;26.08;;
25049;SDS011;13046;49.814;9.918;2024-03-02T08:49:29;34.80;;;25.58;;
25049;SDS011;13046;49.814;9.918;2024-03-02T08:51:55;37.00;;;25.13;;
25049;SDS011;13046;49.814;9.918;2024-03-02T08:54:21;38.92;;;25.70;;
25049;SDS011;13046;49.814;9.918;2024-03-02T08:56:51;36.97;;;26.05;;
25049;SDS011;13046;49.814;9.918;2024-03-02T08:59:17;38.65;;;24.95;;
25049;SDS011;13046;49.814;9.918;2024-03-02T09:01:43;40.10;;;25.38;;
25049;SDS011;13046;49.814;9.918;2024-03-02T09:04:10;41.45;;;26.55;;
25049;SDS011;13046;49.814;9.918;2024-03-02T09:06:36;33.58;;;23.40;;
25049;SDS011;13046;49.814;9.918;2024-03-02T09:09:02;36.50;;;27.15;;
25049;SDS011;13046;49.814;9.918;2024-03-02T09:11:29;31.45;;;23.10;;
25049;SDS011;13046;49.814;9.918;2024-03-02T09:13:55;35.72;;;25.05;;
25049;SDS011;13046;49.814;9.918;2024-03-02T09:16:22;37.28;;;25.13;;
25049;SDS011;13046;49.814;9.918;2024-03-02T09:18:49;34.72;;;25.05;;
25049;SDS011;13046;49.814;9.918;2024-03-02T09:21:15;34.17;;;24.25;;
25049;SDS011;13046;49.814;9.918;2024-03-02T09:23:41;35.38;;;24.48;;
25049;SDS011;13046;49.814;9.918;2024-03-02T09:26:09;35.83;;;23.85;;
25049;SDS011;13046;49.814;9.918;2024-03-02T09:28:35;35.20;;;24.23;;
25049;SDS011;13046;49.814;9.918;2024-03-02T09:31:01;37.85;;;25.33;;
25049;SDS011;13046;49.814;9.918;2024-03-02T09:33:27;31.55;;;23.63;;
25049;SDS011;13046;49.814;9.918;2024-03-02T09:35:53;30.92;;;23.50;;
25049;SDS011;13046;49.814;9.918;2024-03-02T09:38:19;34.08;;;24.40;;
25049;SDS011;13046;49.814;9.918;2024-03-02T09:40:45;29.65;;;22.33;;
25049;SDS011;13046;49.814;9.918;2024-03-02T09:43:12;32.13;;;23.20;;
25049;SDS011;13046;49.814;9.918;2024-03-02T09:45:38;28.30;;;20.83;;
25049;SDS011;13046;49.814;9.918;2024-03-02T09:48:05;29.02;;;23.10;;
25049;SDS011;13046;49.814;9.918;2024-03-02T09:50:31;31.13;;;22.40;;
25049;SDS011;13046;49.814;9.918;2024-03-02T09:52:57;30.02;;;22.13;;
25049;SDS011;13046;49.814;9.918;2024-03-02T09:55:24;31.17;;;23.15;;
25049;SDS011;13046;49.814;9.918;2024-03-02T09:57:50;30.38;;;19.85;;
25049;SDS011;13046;49.814;9.918;2024-03-02T10:00:17;28.05;;;21.23;;
25049;SDS011;13046;49.814;9.918;2024-03-02T10:02:43;28.48;;;21.20;;
25049;SDS011;13046;49.814;9.918;2024-03-02T10:05:11;29.88;;;21.63;;
25049;SDS011;13046;49.814;9.918;2024-03-02T10:07:37;30.42;;;22.38;;
25049;SDS011;13046;49.814;9.918;2024-03-02T10:10:13;28.75;;;20.27;;
25049;SDS011;13046;49.814;9.918;2024-03-02T10:12:39;27.67;;;20.83;;
25049;SDS011;13046;49.814;9.918;2024-03-02T10:15:05;25.35;;;20.40;;
25049;SDS011;13046;49.814;9.918;2024-03-02T10:17:32;25.05;;;19.50;;
25049;SDS011;13046;49.814;9.918;2024-03-02T10:19:59;24.40;;;18.67;;
25049;SDS011;13046;49.814;9.918;2024-03-02T10:22:25;26.90;;;20.38;;
25049;SDS011;13046;49.814;9.918;2024-03-02T10:24:51;27.90;;;23.52;;
25049;SDS011;13046;49.814;9.918;2024-03-02T10:27:19;24.55;;;20.40;;
25049;SDS011;13046;49.814;9.918;2024-03-02T10:29:48;27.55;;;20.85;;
25049;SDS011;13046;49.814;9.918;2024-03-02T10:32:15;26.80;;;20.08;;
25049;SDS011;13046;49.814;9.918;2024-03-02T10:34:42;21.20;;;18.65;;
25049;SDS011;13046;49.814;9.918;2024-03-02T10:37:08;28.63;;;21.55;;
25049;SDS011;13046;49.814;9.918;2024-03-02T10:39:36;38.17;;;34.28;;
25049;SDS011;13046;49.814;9.918;2024-03-02T10:42:03;21.83;;;18.75;;
25049;SDS011;13046;49.814;9.918;2024-03-02T10:44:30;32.40;;;19.50;;
25049;SDS011;13046;49.814;9.918;2024-03-02T10:46:57;22.25;;;16.50;;
25049;SDS011;13046;49.814;9.918;2024-03-02T10:49:26;21.40;;;16.02;;
25049;SDS011;13046;49.814;9.918;2024-03-02T10:51:53;21.17;;;17.00;;
25049;SDS011;13046;49.814;9.918;2024-03-02T10:54:19;19.95;;;16.70;;
25049;SDS011;13046;49.814;9.918;2024-03-02T10:56:51;20.63;;;17.50;;
25049;SDS011;13046;49.814;9.918;2024-03-02T11:01:43;18.58;;;15.45;;
25049;SDS011;13046;49.814;9.918;2024-03-02T11:04:11;18.08;;;14.43;;
25049;SDS011;13046;49.814;9.918;2024-03-02T11:06:38;18.35;;;16.33;;
25049;SDS011;13046;49.814;9.918;2024-03-02T11:09:06;16.42;;;14.00;;
25049;SDS011;13046;49.814;9.918;2024-03-02T11:11:40;16.98;;;14.98;;
25049;SDS011;13046;49.814;9.918;2024-03-02T11:14:07;16.35;;;14.32;;
25049;SDS011;13046;49.814;9.918;2024-03-02T11:16:34;16.98;;;14.45;;
25049;SDS011;13046;49.814;9.918;2024-03-02T11:19:10;17.30;;;15.30;;
25049;SDS011;13046;49.814;9.918;2024-03-02T11:21:37;17.98;;;15.18;;
25049;SDS011;13046;49.814;9.918;2024-03-02T11:27:01;20.02;;;17.50;;
25049;SDS011;13046;49.814;9.918;2024-03-02T11:34:41;16.08;;;14.00;;
25049;SDS011;13046;49.814;9.918;2024-03-02T11:37:11;16.60;;;13.30;;
25049;SDS011;13046;49.814;9.918;2024-03-02T11:39:38;18.88;;;16.88;;
25049;SDS011;13046;49.814;9.918;2024-03-02T11:42:08;18.30;;;16.27;;
25049;SDS011;13046;49.814;9.918;2024-03-02T11:44:35;15.00;;;13.40;;
25049;SDS011;13046;49.814;9.918;2024-03-02T11:47:02;15.15;;;13.57;;
25049;SDS011;13046;49.814;9.918;2024-03-02T11:49:44;15.13;;;13.57;;
25049;SDS011;13046;49.814;9.918;2024-03-02T11:52:11;15.02;;;13.20;;
25049;SDS011;13046;49.814;9.918;2024-03-02T11:54:38;15.75;;;13.65;;
25049;SDS011;13046;49.814;9.918;2024-03-02T11:57:05;12.38;;;10.88;;
25049;SDS011;13046;49.814;9.918;2024-03-02T11:59:31;13.82;;;11.82;;
25049;SDS011;13046;49.814;9.918;2024-03-02T12:01:57;12.52;;;9.82;;
25049;SDS011;13046;49.814;9.918;2024-03-02T12:04:24;12.18;;;10.80;;
25049;SDS011;13046;49.814;9.918;2024-03-02T12:06:57;13.73;;;11.73;;
25049;SDS011;13046;49.814;9.918;2024-03-02T12:09:27;13.02;;;11.73;;
25049;SDS011;13046;49.814;9.918;2024-03-02T12:12:06;12.35;;;10.15;;
25049;SDS011;13046;49.814;9.918;2024-03-02T12:14:33;13.75;;;12.35;;
25049;SDS011;13046;49.814;9.918;2024-03-02T12:17:00;16.48;;;12.32;;
25049;SDS011;13046;49.814;9.918;2024-03-02T12:19:26;11.95;;;9.82;;
25049;SDS011;13046;49.814;9.918;2024-03-02T12:21:54;12.45;;;11.15;;
25049;SDS011;13046;49.814;9.918;2024-03-02T12:24:21;12.60;;;9.18;;
25049;SDS011;13046;49.814;9.918;2024-03-02T12:26:48;11.60;;;8.82;;
25049;SDS011;13046;49.814;9.918;2024-03-02T12:29:14;11.73;;;9.07;;
25049;SDS011;13046;49.814;9.918;2024-03-02T12:31:42;11.40;;;9.70;;
25049;SDS011;13046;49.814;9.918;2024-03-02T12:34:11;11.20;;;10.00;;
25049;SDS011;13046;49.814;9.918;2024-03-02T12:36:38;11.40;;;10.20;;
25049;SDS011;13046;49.814;9.918;2024-03-02T12:39:04;11.80;;;10.70;;
25049;SDS011;13046;49.814;9.918;2024-03-02T12:41:30;10.82;;;9.73;;
25049;SDS011;13046;49.814;9.918;2024-03-02T12:43:56;10.98;;;9.05;;
25049;SDS011;13046;49.814;9.918;2024-03-02T12:46:22;11.32;;;10.23;;
25049;SDS011;13046;49.814;9.918;2024-03-02T12:48:49;11.32;;;10.23;;
25049;SDS011;13046;49.814;9.918;2024-03-02T12:51:15;9.20;;;8.30;;
25049;SDS011;13046;49.814;9.918;2024-03-02T12:53:41;9.25;;;8.15;;
25049;SDS011;13046;49.814;9.918;2024-03-02T12:56:07;11.55;;;9.07;;
25049;SDS011;13046;49.814;9.918;2024-03-02T12:58:40;11.35;;;10.25;;
25049;SDS011;13046;49.814;9.918;2024-03-02T13:01:07;11.52;;;10.38;;
25049;SDS011;13046;49.814;9.918;2024-03-02T13:03:37;11.55;;;9.93;;
25049;SDS011;13046;49.814;9.918;2024-03-02T13:06:04;11.40;;;10.20;;
25049;SDS011;13046;49.814;9.918;2024-03-02T13:08:31;10.20;;;8.55;;
25049;SDS011;13046;49.814;9.918;2024-03-02T13:10:57;10.35;;;9.07;;
25049;SDS011;13046;49.814;9.918;2024-03-02T13:13:23;10.95;;;9.85;;
25049;SDS011;13046;49.814;9.918;2024-03-02T13:15:49;11.52;;;10.43;;
25049;SDS011;13046;49.814;9.918;2024-03-02T13:18:17;13.35;;;9.88;;
25049;SDS011;13046;49.814;9.918;2024-03-02T13:20:44;11.27;;;9.43;;
25049;SDS011;13046;49.814;9.918;2024-03-02T13:23:10;10.55;;;9.48;;
25049;SDS011;13046;49.814;9.918;2024-03-02T13:25:36;9.23;;;7.93;;
25049;SDS011;13046;49.814;9.918;2024-03-02T13:28:02;10.25;;;9.25;;
25049;SDS011;13046;49.814;9.918;2024-03-02T13:30:28;8.98;;;8.18;;
25049;SDS011;13046;49.814;9.918;2024-03-02T13:32:54;14.77;;;13.27;;
25049;SDS011;13046;49.814;9.918;2024-03-02T13:35:20;13.77;;;12.27;;
25049;SDS011;13046;49.814;9.918;2024-03-02T13:37:46;14.05;;;12.63;;
25049;SDS011;13046;49.814;9.918;2024-03-02T13:40:13;12.85;;;9.75;;
25049;SDS011;13046;49.814;9.918;2024-03-02T13:42:44;11.48;;;10.30;;
25049;SDS011;13046;49.814;9.918;2024-03-02T13:45:11;8.82;;;7.95;;
25049;SDS011;13046;49.814;9.918;2024-03-02T13:47:37;11.18;;;10.07;;
25049;SDS011;13046;49.814;9.918;2024-03-02T13:50:03;11.07;;;10.00;;
25049;SDS011;13046;49.814;9.918;2024-03-02T13:52:30;12.02;;;10.82;;
25049;SDS011;13046;49.814;9.918;2024-03-02T13:54:56;13.35;;;11.18;;
25049;SDS011;13046;49.814;9.918;2024-03-02T13:57:22;11.18;;;9.45;;
25049;SDS011;13046;49.814;9.918;2024-03-02T13:59:48;8.27;;;7.47;;
25049;SDS011;13046;49.814;9.918;2024-03-02T14:02:15;8.98;;;8.15;;
25049;SDS011;13046;49.814;9.918;2024-03-02T14:04:41;10.52;;;9.35;;
25049;SDS011;13046;49.814;9.918;2024-03-02T14:07:07;9.45;;;8.50;;
25049;SDS011;13046;49.814;9.918;2024-03-02T14:09:34;10.75;;;9.20;;
25049;SDS011;13046;49.814;9.918;2024-03-02T14:12:00;9.85;;;8.73;;
25049;SDS011;13046;49.814;9.918;2024-03-02T14:14:26;8.98;;;8.10;;
25049;SDS011;13046;49.814;9.918;2024-03-02T14:16:53;7.90;;;7.18;;
25049;SDS011;13046;49.814;9.918;2024-03-02T14:19:21;8.52;;;7.72;;
25049;SDS011;13046;49.814;9.918;2024-03-02T14:21:47;8.27;;;7.38;;
25049;SDS011;13046;49.814;9.918;2024-03-02T14:24:13;7.95;;;7.15;;
25049;SDS011;13046;49.814;9.918;2024-03-02T14:26:39;9.30;;;7.03;;
25049;SDS011;13046;49.814;9.918;2024-03-02T14:29:06;10.07;;;7.28;;
25049;SDS011;13046;49.814;9.918;2024-03-02T14:31:32;8.27;;;7.07;;
25049;SDS011;13046;49.814;9.918;2024-03-02T14:33:58;5.60;;;5.10;;
25049;SDS011;13046;49.814;9.918;2024-03-02T14:36:25;6.35;;;4.38;;
25049;SDS011;13046;49.814;9.918;2024-03-02T14:38:52;6.57;;;4.97;;